Time;durP1;ratioP1;P1;durP2;ratioP2;P2;SDS_P1;SDS_P2;PMS_P1;PMS_P2;Temp;Humidity;BMP_temperature;BMP_pressure;BME280_temperature;BME280_humidity;BME280_pressure;Samples;Min_cycle;Max_cycle;Signal;HPM_P1;HPM_P2
2022/04/13 04:00:49;;;;;;;7.23;4.40;;;11.30;99.90;;;;;;5808668;23;20496;-76
2022/04/13 04:03:16;;;;;;;7.60;5.63;;;11.20;99.90;;;;;;4966088;28;20503;-76
2022/04/13 04:05:43;;;;;;;8.83;6.90;;;11.20;99.90;;;;;;4966170;28;20839;-76
2022/04/13 04:08:09;;;;;;;8.73;6.20;;;11.20;99.90;;;;;;4965315;28;21047;-77
2022/04/13 04:10:37;;;;;;;10.40;5.47;;;11.20;99.90;;;;;;4969293;28;20472;-78
2022/04/13 04:13:04;;;;;;;7.53;5.17;;;11.10;99.90;;;;;;4985299;28;20459;-77
2022/04/13 04:15:30;;;;;;;7.40;5.00;;;11.10;99.90;;;;;;4989218;28;20469;-76
2022/04/13 04:17:59;;;;;;;8.07;4.87;;;11.10;99.90;;;;;;4988311;28;20551;-77
2022/04/13 04:20:25;;;;;;;7.90;4.70;;;11.10;99.90;;;;;;4988059;28;20455;-78
2022/04/13 04:22:52;;;;;;;5.93;4.10;;;11.10;99.90;;;;;;4989065;28;20505;-76
2022/04/13 04:25:19;;;;;;;5.47;4.90;;;11.10;99.90;;;;;;4988737;28;20539;-77
2022/04/13 04:27:46;;;;;;;5.70;5.00;;;11.10;99.90;;;;;;4988287;28;20463;-77
2022/04/13 04:30:13;;;;;;;6.23;5.33;;;11.10;99.90;;;;;;4989080;28;20551;-76
2022/04/13 04:32:40;;;;;;;8.07;5.07;;;11.10;99.90;;;;;;4988676;28;20538;-76
2022/04/13 04:35:09;;;;;;;6.83;5.30;;;11.10;99.90;;;;;;4988603;28;20459;-76
2022/04/13 04:37:36;;;;;;;9.00;5.00;;;11.00;99.90;;;;;;4988027;28;20731;-77
2022/04/13 04:40:04;;;;;;;6.97;4.53;;;11.00;99.90;;;;;;4988543;28;20473;-76
2022/04/13 04:42:30;;;;;;;8.07;5.00;;;11.00;99.90;;;;;;4988710;28;20510;-76
2022/04/13 04:44:58;;;;;;;8.30;6.03;;;11.00;99.90;;;;;;4988629;28;20550;-76
2022/04/13 04:47:25;;;;;;;7.17;5.77;;;10.90;99.90;;;;;;4987967;28;20469;-76
2022/04/13 04:49:53;;;;;;;5.57;5.00;;;10.90;99.90;;;;;;4988448;28;20482;-78
2022/04/13 04:52:21;;;;;;;11.47;7.03;;;10.90;99.90;;;;;;4988343;28;21023;-76
2022/04/13 04:54:48;;;;;;;5.20;4.50;;;10.90;99.90;;;;;;4988170;28;20829;-76
2022/04/13 04:57:15;;;;;;;4.80;4.37;;;10.90;99.90;;;;;;4987444;28;20459;-77
2022/04/13 04:59:41;;;;;;;8.07;5.00;;;10.90;99.90;;;;;;4988207;28;20459;-78
2022/04/13 05:02:08;;;;;;;6.67;4.33;;;10.80;99.90;;;;;;4989487;28;20898;-79
2022/04/13 05:04:35;;;;;;;8.37;4.43;;;10.80;99.90;;;;;;4989700;28;20471;-79
2022/04/13 05:07:02;;;;;;;6.10;4.50;;;10.80;99.90;;;;;;4988697;28;20831;-79
2022/04/13 05:09:30;;;;;;;6.13;3.87;;;10.80;99.90;;;;;;4989761;28;20541;-79
2022/04/13 05:11:57;;;;;;;6.00;4.30;;;10.80;99.90;;;;;;4990281;28;20547;-79
2022/04/13 05:14:25;;;;;;;6.97;4.10;;;10.80;99.90;;;;;;4990226;28;20482;-79
2022/04/13 05:16:52;;;;;;;7.47;3.87;;;10.70;99.90;;;;;;4989536;28;20478;-79
2022/04/13 05:19:21;;;;;;;5.80;3.90;;;10.70;99.90;;;;;;4990427;28;20566;-79
2022/04/13 05:21:48;;;;;;;8.50;4.63;;;10.70;99.90;;;;;;4990082;28;20511;-80
2022/04/13 05:24:15;;;;;;;4.40;3.80;;;10.70;99.90;;;;;;4990303;28;20538;-79
2022/04/13 05:26:43;;;;;;;7.50;3.93;;;10.70;99.90;;;;;;4989807;28;20487;-80
2022/04/13 05:29:10;;;;;;;6.90;4.33;;;10.60;99.90;;;;;;4989533;28;20578;-79
2022/04/13 05:31:37;;;;;;;7.90;5.00;;;10.60;99.90;;;;;;4988340;28;20481;-72
2022/04/13 05:34:04;;;;;;;8.30;4.80;;;10.60;99.90;;;;;;4988822;28;21238;-78
2022/04/13 05:36:31;;;;;;;6.63;4.60;;;10.50;99.90;;;;;;4990326;28;21113;-78
2022/04/13 05:38:57;;;;;;;7.40;4.90;;;10.50;99.90;;;;;;4988940;28;20459;-78
2022/04/13 05:41:24;;;;;;;6.13;4.40;;;10.60;99.90;;;;;;4988172;28;20480;-78
2022/04/13 05:43:52;;;;;;;6.23;4.63;;;10.60;99.90;;;;;;4988268;28;20488;-78
2022/04/13 05:46:19;;;;;;;6.80;4.60;;;10.60;99.90;;;;;;4987816;28;20462;-79
2022/04/13 05:48:47;;;;;;;5.53;3.70;;;10.60;99.90;;;;;;4988249;28;20483;-79
2022/04/13 05:51:14;;;;;;;3.90;3.30;;;10.60;99.90;;;;;;4988295;28;20468;-80
2022/04/13 05:53:41;;;;;;;6.63;4.20;;;10.60;99.90;;;;;;4988340;28;20479;-78
2022/04/13 05:56:08;;;;;;;8.63;4.67;;;10.60;99.90;;;;;;4988280;28;21293;-78
2022/04/13 05:58:34;;;;;;;6.33;4.07;;;10.70;99.90;;;;;;4987279;28;20550;-79
2022/04/13 06:01:03;;;;;;;6.63;4.63;;;10.70;99.90;;;;;;4987787;28;20483;-80
2022/04/13 06:03:30;;;;;;;7.00;5.53;;;10.70;99.90;;;;;;4988206;28;20585;-79
2022/04/13 06:05:56;;;;;;;7.40;5.00;;;10.80;99.90;;;;;;4988526;28;20440;-79
2022/04/13 06:08:23;;;;;;;9.27;4.97;;;10.70;99.90;;;;;;4986885;28;20455;-70
2022/04/13 06:10:50;;;;;;;6.30;4.30;;;10.70;99.90;;;;;;4987001;28;20999;-71
2022/04/13 06:13:17;;;;;;;10.87;5.30;;;10.80;99.90;;;;;;4987340;28;20451;-70
2022/04/13 06:15:44;;;;;;;7.80;5.60;;;10.80;99.90;;;;;;4986984;28;20543;-71
2022/04/13 06:18:12;;;;;;;7.30;5.47;;;10.80;99.90;;;;;;4985894;28;20550;-71
2022/04/13 06:20:39;;;;;;;10.30;5.30;;;10.80;99.90;;;;;;4987510;28;20506;-78
2022/04/13 06:23:06;;;;;;;8.50;5.23;;;10.80;99.90;;;;;;4987518;28;20586;-78
2022/04/13 06:25:33;;;;;;;9.13;5.10;;;10.90;99.90;;;;;;4987885;28;20462;-76
2022/04/13 06:28:00;;;;;;;6.20;4.30;;;10.90;99.90;;;;;;4986928;28;20459;-78
2022/04/13 06:30:27;;;;;;;5.37;3.93;;;10.90;99.90;;;;;;4967584;28;20507;-78
2022/04/13 06:32:54;;;;;;;5.97;4.33;;;10.90;99.90;;;;;;4967639;28;20459;-78
2022/04/13 06:35:23;;;;;;;7.33;4.10;;;11.00;99.90;;;;;;4967755;28;20576;-77
2022/04/13 06:37:52;;;;;;;9.00;4.90;;;11.10;99.90;;;;;;4966627;28;20465;-77
2022/04/13 06:40:19;;;;;;;10.50;5.57;;;11.10;99.90;;;;;;4967255;28;20460;-77
2022/04/13 06:42:45;;;;;;;9.27;6.17;;;11.20;99.90;;;;;;4966927;28;20934;-77
2022/04/13 06:45:14;;;;;;;12.33;6.00;;;11.50;99.90;;;;;;4967667;28;20484;-77
2022/04/13 06:47:42;;;;;;;10.10;7.13;;;11.60;99.90;;;;;;4966690;28;20547;-76
2022/04/13 06:50:10;;;;;;;15.10;7.30;;;11.60;99.90;;;;;;4967306;28;20464;-77
2022/04/13 06:52:39;;;;;;;12.93;6.47;;;11.60;99.90;;;;;;4965820;28;20480;-77
2022/04/13 06:55:09;;;;;;;11.23;5.97;;;11.60;99.90;;;;;;4966431;28;21144;-77
2022/04/13 06:57:37;;;;;;;9.57;5.90;;;11.60;99.90;;;;;;4965493;28;21083;-77
2022/04/13 07:00:05;;;;;;;12.20;5.90;;;11.70;99.90;;;;;;4966354;28;20911;-77
2022/04/13 07:02:32;;;;;;;11.60;5.60;;;11.80;99.90;;;;;;4967255;28;20928;-77
2022/04/13 07:04:59;;;;;;;8.77;4.73;;;11.80;99.90;;;;;;4966217;28;20469;-77
2022/04/13 07:07:26;;;;;;;7.90;4.53;;;11.90;99.90;;;;;;4966528;28;20464;-77
2022/04/13 07:09:54;;;;;;;7.80;5.00;;;12.10;99.90;;;;;;4966736;28;20460;-77
2022/04/13 07:12:21;;;;;;;6.80;4.43;;;12.30;99.90;;;;;;4966533;28;20487;-77
2022/04/13 07:14:48;;;;;;;5.67;4.90;;;12.40;99.90;;;;;;4966651;28;20456;-77
2022/04/13 07:17:15;;;;;;;9.13;5.10;;;12.50;99.90;;;;;;4966177;28;20453;-77
2022/04/13 07:19:42;;;;;;;5.93;4.20;;;12.60;99.90;;;;;;4966965;28;20970;-77
2022/04/13 07:22:08;;;;;;;10.23;5.77;;;12.60;99.90;;;;;;4966261;28;20464;-77
2022/04/13 07:24:35;;;;;;;6.60;5.17;;;12.60;99.90;;;;;;4966315;28;20464;-77
2022/04/13 07:27:05;;;;;;;7.53;4.80;;;12.80;99.90;;;;;;4966166;28;20460;-77
2022/04/13 07:29:32;;;;;;;13.03;4.80;;;12.90;99.90;;;;;;4966540;28;20467;-77
2022/04/13 07:31:58;;;;;;;7.80;4.70;;;13.10;99.90;;;;;;4966619;28;20476;-77
2022/04/13 07:34:25;;;;;;;9.27;5.00;;;13.20;99.90;;;;;;4966217;28;20668;-77
2022/04/13 07:36:52;;;;;;;5.80;4.83;;;13.40;99.90;;;;;;4966363;28;20475;-77
2022/04/13 07:39:19;;;;;;;7.60;4.53;;;13.60;99.90;;;;;;4966045;28;20559;-77
2022/04/13 07:41:46;;;;;;;9.50;4.93;;;13.70;99.90;;;;;;4965990;28;20992;-77
2022/04/13 07:44:14;;;;;;;5.10;4.33;;;13.80;99.90;;;;;;4966054;28;20587;-77
2022/04/13 07:46:41;;;;;;;4.67;3.63;;;13.80;99.90;;;;;;4965702;28;20929;-77
2022/04/13 07:49:09;;;;;;;4.63;3.80;;;14.10;99.90;;;;;;4967765;28;20548;-77
2022/04/13 07:51:36;;;;;;;8.73;3.80;;;14.30;99.90;;;;;;4969781;28;20918;-77
2022/04/13 07:54:03;;;;;;;6.47;4.30;;;14.40;99.90;;;;;;4970007;28;20471;-77
2022/04/13 07:56:31;;;;;;;8.13;4.40;;;14.40;99.90;;;;;;4969737;28;20464;-77
2022/04/13 07:58:58;;;;;;;8.67;3.60;;;14.40;99.90;;;;;;4970365;28;20457;-77
2022/04/13 08:01:26;;;;;;;4.83;3.80;;;14.50;99.90;;;;;;4969615;28;20484;-77
2022/04/13 08:03:53;;;;;;;6.17;3.60;;;14.70;99.90;;;;;;4969815;28;20563;-77
2022/04/13 08:06:20;;;;;;;5.50;3.77;;;15.00;99.90;;;;;;4969240;28;20459;-77
2022/04/13 08:08:47;;;;;;;5.23;4.07;;;15.20;99.90;;;;;;4969907;28;20535;-77
2022/04/13 08:11:14;;;;;;;5.93;3.67;;;15.50;99.90;;;;;;4969691;28;20538;-77
2022/04/13 08:13:40;;;;;;;8.13;4.03;;;15.80;99.90;;;;;;4969848;28;20532;-77
2022/04/13 08:16:07;;;;;;;5.47;3.97;;;16.20;99.90;;;;;;4970008;28;20841;-77
2022/04/13 08:18:35;;;;;;;6.07;4.00;;;16.40;99.90;;;;;;4968785;28;20471;-77
2022/04/13 08:21:04;;;;;;;5.10;3.80;;;16.60;99.90;;;;;;4969510;28;20567;-77
2022/04/13 08:23:30;;;;;;;8.00;4.00;;;16.90;99.90;;;;;;4970033;28;20551;-77
2022/04/13 08:25:57;;;;;;;5.93;3.90;;;17.10;99.90;;;;;;4969885;28;20459;-77
2022/04/13 08:28:24;;;;;;;8.10;3.80;;;17.40;99.90;;;;;;4969166;28;21233;-77
2022/04/13 08:30:51;;;;;;;4.83;3.40;;;17.50;99.90;;;;;;4969639;28;20476;-77
2022/04/13 08:33:18;;;;;;;9.57;4.40;;;17.60;99.90;;;;;;4969431;28;20559;-77
2022/04/13 08:35:46;;;;;;;6.33;3.47;;;17.60;99.90;;;;;;4969977;28;20471;-77
2022/04/13 08:38:13;;;;;;;7.60;3.90;;;18.00;99.90;;;;;;4969569;28;20563;-77
2022/04/13 08:40:48;;;;;;;11.83;4.23;;;18.50;99.90;;;;;;4969409;28;20489;-77
2022/04/13 08:43:24;;;;;;;7.30;4.07;;;18.50;99.90;;;;;;4969307;28;20491;-77
2022/04/13 08:45:56;;;;;;;5.67;3.73;;;18.80;99.90;;;;;;4969076;28;20534;-77
2022/04/13 08:48:25;;;;;;;6.30;3.90;;;18.70;99.90;;;;;;4968902;28;20460;-77
2022/04/13 08:50:58;;;;;;;4.40;3.60;;;18.80;99.90;;;;;;4969281;28;21277;-77
2022/04/13 08:53:29;;;;;;;6.30;3.27;;;19.20;99.90;;;;;;4969024;28;20503;-77
2022/04/13 08:55:58;;;;;;;5.70;3.77;;;19.60;99.90;;;;;;4968944;28;20823;-77
2022/04/13 08:58:32;;;;;;;5.47;3.77;;;19.40;99.90;;;;;;4968070;28;20460;-77
2022/04/13 09:01:04;;;;;;;13.27;3.67;;;19.50;99.90;;;;;;4968684;28;20543;-77
2022/04/13 09:03:42;;;;;;;5.13;3.20;;;19.70;99.90;;;;;;4968995;28;20882;-77
2022/04/13 09:06:13;;;;;;;5.50;3.50;;;19.80;99.90;;;;;;4969023;28;20511;-77
2022/04/13 09:08:50;;;;;;;5.00;3.17;;;19.90;99.90;;;;;;4968340;28;20465;-78
2022/04/13 09:11:21;;;;;;;6.10;3.30;;;20.50;99.90;;;;;;4969036;28;20487;-78
2022/04/13 09:13:48;;;;;;;7.60;3.80;;;20.60;99.90;;;;;;4969481;28;20507;-78
2022/04/13 09:16:15;;;;;;;10.73;3.57;;;20.70;99.90;;;;;;4968440;28;20487;-77
2022/04/13 09:18:43;;;;;;;10.33;3.83;;;20.70;99.90;;;;;;4968649;28;20896;-77
2022/04/13 09:21:13;;;;;;;4.40;3.27;;;20.60;99.90;;;;;;4968641;28;20476;-77
2022/04/13 09:23:40;;;;;;;6.17;3.93;;;20.80;99.90;;;;;;4968647;28;20507;-77
2022/04/13 09:26:09;;;;;;;5.20;3.43;;;20.90;99.90;;;;;;4968850;28;20454;-78
2022/04/13 09:28:37;;;;;;;5.60;3.60;;;20.90;99.90;;;;;;4968265;28;20524;-77
2022/04/13 09:31:04;;;;;;;4.47;3.03;;;20.90;99.90;;;;;;4968436;28;20472;-77
2022/04/13 09:33:31;;;;;;;6.93;3.33;;;20.70;99.90;;;;;;4968198;28;20460;-77
2022/04/13 09:35:57;;;;;;;5.33;3.30;;;20.70;99.90;;;;;;4968471;28;20463;-77
2022/04/13 09:38:27;;;;;;;4.20;3.80;;;20.80;99.90;;;;;;4968302;28;20540;-77
2022/04/13 09:40:54;;;;;;;6.77;3.40;;;21.00;99.90;;;;;;4968715;28;20563;-77
2022/04/13 09:43:23;;;;;;;8.10;3.63;;;21.00;99.90;;;;;;4968291;28;20500;-77
2022/04/13 09:45:51;;;;;;;6.57;3.10;;;21.00;99.90;;;;;;4968269;28;20545;-77
2022/04/13 09:48:19;;;;;;;9.57;3.60;;;20.90;99.90;;;;;;4967596;28;20757;-77
2022/04/13 09:50:48;;;;;;;6.37;3.37;;;21.00;99.90;;;;;;4968548;28;20567;-77
2022/04/13 09:53:16;;;;;;;7.27;3.50;;;21.20;99.90;;;;;;4968241;28;20456;-77
2022/04/13 09:55:45;;;;;;;3.60;2.80;;;21.30;99.90;;;;;;4968448;28;20468;-77
2022/04/13 09:58:13;;;;;;;5.30;3.27;;;21.40;99.90;;;;;;4968058;28;20445;-77
2022/04/13 10:00:43;;;;;;;6.07;3.20;;;21.50;99.90;;;;;;4968145;28;20571;-77
2022/04/13 10:03:12;;;;;;;6.57;3.33;;;21.60;99.90;;;;;;4968540;28;20523;-77
2022/04/13 10:05:42;;;;;;;9.67;3.40;;;21.80;99.90;;;;;;4968034;28;20960;-77
2022/04/13 10:08:10;;;;;;;5.90;3.33;;;22.10;99.90;;;;;;4967873;28;20467;-77
2022/04/13 10:10:41;;;;;;;5.20;3.47;;;22.10;99.90;;;;;;4967682;28;20478;-77
2022/04/13 10:13:09;;;;;;;6.70;2.77;;;22.00;99.90;;;;;;4967318;28;20818;-77
2022/04/13 10:15:36;;;;;;;5.13;3.20;;;22.00;99.90;;;;;;4967306;28;20461;-77
2022/04/13 10:18:05;;;;;;;6.93;3.00;;;22.00;99.90;;;;;;4967044;28;20580;-77
2022/04/13 10:20:45;;;;;;;5.50;2.60;;;22.10;99.90;;;;;;4966642;28;20961;-77
2022/04/13 10:23:13;;;;;;;6.27;2.90;;;22.20;99.90;;;;;;4967254;28;20452;-77
2022/04/13 10:25:40;;;;;;;6.20;3.03;;;22.30;99.90;;;;;;4967481;28;20463;-77
2022/04/13 10:28:12;;;;;;;6.70;3.10;;;22.40;99.90;;;;;;4966945;28;20448;-77
2022/04/13 10:30:40;;;;;;;5.50;2.80;;;22.50;99.90;;;;;;4967372;28;20508;-77
2022/04/13 10:33:08;;;;;;;5.70;3.07;;;22.60;99.90;;;;;;4967707;28;20448;-77
2022/04/13 10:35:38;;;;;;;7.53;2.87;;;22.70;99.90;;;;;;4967560;28;20456;-77
2022/04/13 10:38:05;;;;;;;7.00;2.57;;;22.80;99.90;;;;;;4967375;28;20467;-77
2022/04/13 10:40:33;;;;;;;13.47;3.00;;;22.90;99.90;;;;;;4966910;28;20469;-77
2022/04/13 10:43:03;;;;;;;15.50;3.10;;;22.90;99.90;;;;;;4967228;28;20983;-77
2022/04/13 10:45:33;;;;;;;11.30;3.63;;;22.90;99.90;;;;;;4967072;28;20460;-77
2022/04/13 10:48:02;;;;;;;10.67;3.23;;;23.10;99.90;;;;;;4967438;28;20535;-77
2022/04/13 10:50:37;;;;;;;9.23;3.10;;;23.10;99.90;;;;;;4967110;28;20510;-77
2022/04/13 10:53:15;;;;;;;7.33;2.80;;;23.10;99.90;;;;;;4967144;28;20764;-77
2022/04/13 10:55:43;;;;;;;5.63;3.00;;;23.10;99.90;;;;;;4967266;28;20903;-77
2022/04/13 10:58:16;;;;;;;8.63;2.70;;;23.20;99.90;;;;;;4966636;28;20457;-77
2022/04/13 11:00:48;;;;;;;4.73;2.23;;;23.20;99.90;;;;;;4966932;28;20495;-77
2022/04/13 11:03:19;;;;;;;8.43;3.33;;;23.20;99.90;;;;;;4966382;28;20467;-77
2022/04/13 11:05:47;;;;;;;7.80;3.20;;;23.20;99.90;;;;;;4966889;28;20460;-77
2022/04/13 11:08:27;;;;;;;4.83;2.50;;;23.30;99.90;;;;;;4966343;28;21018;-77
2022/04/13 11:10:54;;;;;;;8.23;2.70;;;23.40;99.90;;;;;;4966327;28;20736;-77
2022/04/13 11:13:22;;;;;;;5.33;2.77;;;23.40;99.90;;;;;;4966746;28;20460;-77
2022/04/13 11:15:51;;;;;;;6.50;2.80;;;23.40;99.90;;;;;;4966495;28;20460;-77
2022/04/13 11:18:20;;;;;;;3.87;2.00;;;23.60;99.90;;;;;;4966059;28;20459;-77
2022/04/13 11:21:06;;;;;;;8.47;3.30;;;23.70;99.90;;;;;;4966778;28;20487;-78
2022/04/13 11:23:52;;;;;;;9.10;2.90;;;23.90;99.90;;;;;;4966205;28;20495;-78
2022/04/13 11:26:27;;;;;;;8.07;2.83;;;24.20;99.90;;;;;;4965851;28;20460;-78
2022/04/13 11:29:15;;;;;;;8.40;2.90;;;24.20;99.90;;;;;;4966962;28;20460;-78
2022/04/13 11:32:11;;;;;;;5.23;2.57;;;24.20;99.90;;;;;;4966611;28;20477;-78
2022/04/13 11:34:41;;;;;;;4.93;2.40;;;24.20;99.90;;;;;;4966854;28;20937;-78
2022/04/13 11:37:10;;;;;;;5.30;2.17;;;24.30;99.90;;;;;;4965810;28;20545;-78
2022/04/13 11:39:51;;;;;;;5.47;2.10;;;24.20;99.90;;;;;;4966622;28;20967;-78
2022/04/13 11:42:53;;;;;;;8.07;2.13;;;24.20;99.90;;;;;;4966470;28;20976;-78
2022/04/13 11:45:23;;;;;;;6.73;2.33;;;24.20;99.90;;;;;;4963920;28;20583;-78
2022/04/13 11:47:59;;;;;;;10.00;3.33;;;24.30;99.90;;;;;;4965772;28;20482;-78
2022/04/13 11:50:27;;;;;;;8.80;2.23;;;24.40;99.90;;;;;;4966555;28;20456;-78
2022/04/13 11:52:58;;;;;;;7.30;3.60;;;24.40;99.90;;;;;;4966721;28;20516;-79
2022/04/13 11:55:28;;;;;;;7.00;2.80;;;24.40;99.90;;;-143.14;100.00;56521.75;4966011;28;20449;-78
2022/04/13 11:58:22;;;;;;;5.70;2.20;;;24.60;99.90;;;-143.14;100.00;56521.75;4966106;28;20515;-78
2022/04/13 12:01:05;;;;;;;4.87;2.43;;;24.70;99.90;;;-143.14;100.00;56521.75;4965975;28;20494;-78
2022/04/13 12:03:36;;;;;;;9.43;2.97;;;24.80;99.90;;;-143.14;100.00;56521.75;4966468;28;20940;-78
2022/04/13 12:06:07;;;;;;;5.17;2.23;;;24.80;99.90;;;-143.14;100.00;56521.75;4965971;28;20447;-78
2022/04/13 12:08:37;;;;;;;5.63;2.30;;;24.90;99.90;;;-143.14;100.00;56521.75;4965514;28;21352;-78
2022/04/13 12:11:10;;;;;;;4.40;2.33;;;25.00;99.90;;;-143.14;100.00;56521.75;4966040;28;20566;-78
2022/04/13 12:13:56;;;;;;;3.50;1.90;;;25.20;99.90;;;-143.14;100.00;56521.75;4966297;28;21008;-78
2022/04/13 12:16:26;;;;;;;6.33;2.40;;;25.40;99.90;;;-143.14;100.00;56521.75;4965497;28;20805;-78
2022/04/13 12:19:00;;;;;;;8.07;2.50;;;25.50;99.70;;;-143.14;100.00;56521.75;4965982;28;20820;-78
2022/04/13 12:21:30;;;;;;;6.73;2.73;;;25.60;99.90;;;-143.14;100.00;56521.75;4966328;28;20471;-78
2022/04/13 12:24:01;;;;;;;5.53;2.60;;;25.60;99.10;;;-143.14;100.00;56521.75;4966292;28;20544;-78
2022/04/13 12:26:32;;;;;;;7.13;2.77;;;25.60;99.20;;;-143.14;100.00;56521.75;4965498;28;20492;-78
2022/04/13 12:29:00;;;;;;;3.83;2.27;;;25.80;99.20;;;-143.14;100.00;56521.75;4966024;28;20467;-78
2022/04/13 12:31:28;;;;;;;8.53;2.40;;;25.90;99.30;;;-143.14;100.00;56521.75;4965929;28;20483;-78
2022/04/13 12:34:04;;;;;;;6.00;2.60;;;26.10;99.40;;;-143.14;100.00;56521.75;4966067;28;20467;-78
2022/04/13 12:36:31;;;;;;;4.30;1.97;;;26.20;99.20;;;-143.14;100.00;56521.75;4968576;28;20534;-78
2022/04/13 12:38:58;;;;;;;4.47;2.60;;;26.20;97.30;;;-143.14;100.00;56521.75;4969722;28;20482;-78
2022/04/13 12:41:29;;;;;;;7.20;2.43;;;26.20;98.50;;;-143.14;100.00;56521.75;4969061;28;20476;-78
2022/04/13 12:43:59;;;;;;;5.33;2.53;;;26.40;97.70;;;-143.14;100.00;56521.75;4969212;28;20543;-78
2022/04/13 12:46:29;;;;;;;4.57;2.30;;;26.50;97.30;;;-143.14;100.00;56521.75;4968670;28;20467;-78
2022/04/13 12:48:58;;;;;;;3.67;2.40;;;26.60;98.10;;;-143.14;100.00;56521.75;4968945;28;20488;-78
2022/04/13 12:51:32;;;;;;;7.30;2.20;;;26.70;97.10;;;-143.14;100.00;56521.75;4968959;28;20486;-78
2022/04/13 12:54:02;;;;;;;4.57;2.33;;;26.80;97.00;;;-143.14;100.00;56521.75;4969145;28;20464;-78
2022/04/13 12:56:32;;;;;;;7.40;2.30;;;26.70;95.90;;;-143.14;100.00;56521.75;4968703;28;20444;-78
2022/04/13 12:59:00;;;;;;;5.40;2.37;;;26.60;95.50;;;-143.14;100.00;56521.75;4969231;28;20461;-78
2022/04/13 13:01:33;;;;;;;6.33;2.67;;;26.70;97.00;;;-143.14;100.00;56521.75;4968921;28;20916;-78
2022/04/13 13:04:12;;;;;;;8.00;2.50;;;26.80;95.30;;;-143.14;100.00;56521.75;4968641;28;20900;-78
2022/04/13 13:06:55;;;;;;;5.00;2.27;;;26.80;95.20;;;-143.14;100.00;56521.75;4968669;28;20471;-78
2022/04/13 13:09:26;;;;;;;5.83;2.33;;;26.80;95.50;;;-143.14;100.00;56521.75;4968976;28;20543;-78
2022/04/13 13:11:59;;;;;;;8.13;2.50;;;26.90;95.00;;;-143.14;100.00;56521.75;4968951;28;20480;-78
2022/04/13 13:14:34;;;;;;;8.20;2.70;;;26.80;95.20;;;-143.14;100.00;56521.75;4969349;28;20456;-78
2022/04/13 13:17:19;;;;;;;4.23;2.10;;;27.00;95.10;;;-143.14;100.00;56521.75;4968665;28;20448;-78
2022/04/13 13:19:49;;;;;;;5.37;2.17;;;27.20;94.70;;;-143.14;100.00;56521.75;4968544;28;20441;-78
2022/04/13 13:22:23;;;;;;;6.93;2.60;;;27.20;95.00;;;-143.14;100.00;56521.75;4969110;28;20487;-78
2022/04/13 13:24:58;;;;;;;5.67;2.43;;;27.20;94.80;;;-143.14;100.00;56521.75;4968642;28;20500;-78
2022/04/13 13:27:28;;;;;;;6.53;2.43;;;27.20;94.50;;;-143.14;100.00;56521.75;4968414;28;20625;-78
2022/04/13 13:29:58;;;;;;;5.30;2.23;;;27.20;94.00;;;-143.14;100.00;56521.75;4968527;28;20944;-78
2022/04/13 13:32:29;;;;;;;7.70;2.13;;;27.20;94.00;;;-143.14;100.00;56521.75;4968597;28;20563;-78
2022/04/13 13:35:00;;;;;;;8.13;2.90;;;27.30;94.80;;;-143.14;100.00;56521.75;4968202;28;20835;-78
2022/04/13 13:37:41;;;;;;;6.33;2.67;;;27.50;95.70;;;-143.14;100.00;56521.75;4967918;28;21381;-78
2022/04/13 13:40:41;;;;;;;6.60;2.57;;;27.50;92.90;;;-143.14;100.00;56521.75;4968515;28;20507;-78
2022/04/13 13:43:10;;;;;;;5.17;2.40;;;27.50;93.00;;;-143.14;100.00;56521.75;4968428;28;20518;-78
2022/04/13 13:45:39;;;;;;;4.17;2.17;;;27.40;92.60;;;-143.14;100.00;56521.75;4968070;28;20511;-78
2022/04/13 13:48:09;;;;;;;6.07;2.30;;;27.40;93.00;;;-143.14;100.00;56521.75;4967075;28;20561;-78
2022/04/13 13:50:39;;;;;;;4.10;2.20;;;27.50;92.70;;;-143.14;100.00;56521.75;4968390;28;20567;-78
2022/04/13 13:53:11;;;;;;;7.00;2.40;;;27.50;92.80;;;-143.14;100.00;56521.75;4967885;28;20456;-78
2022/04/13 13:55:44;;;;;;;5.03;2.30;;;27.70;93.30;;;-143.14;100.00;56521.75;4967873;28;20544;-78
2022/04/13 13:58:12;;;;;;;5.97;2.40;;;27.70;92.50;;;-143.14;100.00;56521.75;4967415;28;20459;-78
2022/04/13 14:00:40;;;;;;;5.40;1.93;;;27.80;92.10;;;-143.14;100.00;56521.75;4967770;28;20660;-78
2022/04/13 14:03:09;;;;;;;9.60;2.63;;;27.80;92.30;;;-143.14;100.00;56521.75;4967730;28;20961;-78
2022/04/13 14:05:37;;;;;;;5.13;2.30;;;27.90;91.90;;;-143.14;100.00;56521.75;4967660;28;20939;-78
2022/04/13 14:08:08;;;;;;;6.10;2.50;;;28.00;91.30;;;-143.14;100.00;56521.75;4966237;28;20551;-70
2022/04/13 14:10:37;;;;;;;9.80;3.07;;;27.90;90.50;;;-143.14;100.00;56521.75;4966795;28;20473;-71
2022/04/13 14:13:05;;;;;;;6.20;2.97;;;27.80;91.10;;;-143.14;100.00;56521.75;4966531;28;21065;-71
2022/04/13 14:15:32;;;;;;;4.80;2.47;;;27.90;90.50;;;-143.14;100.00;56521.75;4966871;28;20507;-71
2022/04/13 14:17:59;;;;;;;8.80;2.67;;;27.90;90.00;;;-143.14;100.00;56521.75;4966325;28;20572;-70
2022/04/13 14:20:26;;;;;;;5.60;2.30;;;27.90;88.60;;;-143.14;100.00;56521.75;4966766;28;20448;-79
2022/04/13 14:22:55;;;;;;;8.60;2.60;;;27.80;87.20;;;-143.14;100.00;56521.75;4967465;28;20456;-78
2022/04/13 14:25:25;;;;;;;6.50;2.37;;;27.90;88.70;;;-143.14;100.00;56521.75;4966859;28;20562;-79
2022/04/13 14:27:53;;;;;;;6.63;2.30;;;28.10;89.70;;;-143.14;100.00;56521.75;4966576;28;20483;-78
2022/04/13 14:30:23;;;;;;;13.20;2.50;;;28.20;88.80;;;-143.14;100.00;56521.75;4966874;28;20452;-78
2022/04/13 14:32:53;;;;;;;7.93;2.40;;;28.40;90.10;;;-143.14;100.00;56521.75;4966188;28;20491;-78
2022/04/13 14:35:20;;;;;;;3.23;2.07;;;28.60;89.00;;;-143.14;100.00;56521.75;4966923;28;20493;-78
2022/04/13 14:37:52;;;;;;;8.27;2.27;;;28.90;88.40;;;-143.14;100.00;56521.75;4966309;28;20482;-78
2022/04/13 14:40:19;;;;;;;5.37;2.43;;;29.10;89.40;;;-143.14;100.00;56521.75;4970697;28;20471;-80
2022/04/13 14:42:48;;;;;;;4.83;2.30;;;29.30;88.20;;;-143.14;100.00;56521.75;4971984;28;20457;-80
2022/04/13 14:45:15;;;;;;;4.90;2.20;;;29.60;84.70;;;-143.14;100.00;56521.75;4972789;28;20500;-79
2022/04/13 14:47:44;;;;;;;5.53;2.10;;;29.70;82.90;;;-143.14;100.00;56521.75;4971430;28;20507;-79
2022/04/13 14:50:11;;;;;;;6.67;2.43;;;29.80;79.20;;;-143.14;100.00;56521.75;4968665;28;20484;-78
2022/04/13 14:52:38;;;;;;;4.47;2.00;;;29.80;81.10;;;-143.14;100.00;56521.75;4969114;28;20471;-78
2022/04/13 14:55:09;;;;;;;7.87;2.27;;;30.10;84.70;;;-143.14;100.00;56521.75;4968508;28;20456;-78
2022/04/13 14:57:38;;;;;;;5.33;2.40;;;30.10;81.80;;;-143.14;100.00;56521.75;4985455;28;20448;-77
2022/04/13 15:00:12;;;;;;;7.20;2.50;;;30.10;83.50;;;-143.14;100.00;56521.75;4987166;28;20540;-77
2022/04/13 15:02:40;;;;;;;7.60;3.20;;;30.20;83.60;;;-143.14;100.00;56521.75;4988250;28;20953;-78
2022/04/13 15:05:09;;;;;;;7.20;3.63;;;30.30;79.90;;;-143.14;100.00;56521.75;4987108;28;20613;-78
2022/04/13 15:07:37;;;;;;;10.13;3.13;;;30.30;77.00;;;-143.14;100.00;56521.75;4987145;28;20466;-77
2022/04/13 15:10:05;;;;;;;7.97;3.90;;;30.40;76.20;;;-143.14;100.00;56521.75;4988694;28;20462;-77
2022/04/13 15:12:33;;;;;;;7.70;3.23;;;30.30;76.20;;;-143.14;100.00;56521.75;4988826;28;20491;-78
2022/04/13 15:15:00;;;;;;;11.83;3.13;;;30.40;77.30;;;-143.14;100.00;56521.75;4988557;28;20515;-77
2022/04/13 15:17:28;;;;;;;7.70;3.00;;;30.50;78.30;;;-143.14;100.00;56521.75;4988052;28;20460;-78
2022/04/13 15:19:55;;;;;;;5.20;3.20;;;30.50;77.30;;;-143.14;100.00;56521.75;4989095;28;20467;-77
2022/04/13 15:22:23;;;;;;;6.27;3.17;;;30.60;74.00;;;-143.14;100.00;56521.75;4988545;28;20514;-77
2022/04/13 15:24:50;;;;;;;4.87;2.90;;;30.50;76.60;;;-143.14;100.00;56521.75;4989367;28;20535;-77
2022/04/13 15:27:17;;;;;;;6.13;2.97;;;30.50;75.30;;;-143.14;100.00;56521.75;4987989;28;20510;-77
2022/04/13 15:29:44;;;;;;;6.43;3.70;;;30.70;76.50;;;-143.14;100.00;56521.75;4989167;28;21121;-78
2022/04/13 15:32:11;;;;;;;6.13;3.87;;;30.70;75.20;;;-143.14;100.00;56521.75;4988897;28;20852;-78
2022/04/13 15:34:40;;;;;;;6.67;2.67;;;30.70;73.50;;;-143.14;100.00;56521.75;4988656;28;20462;-78
2022/04/13 15:37:07;;;;;;;6.90;2.90;;;30.60;73.40;;;-143.14;100.00;56521.75;4987527;28;20477;-77
2022/04/13 15:39:34;;;;;;;12.50;4.67;;;30.70;72.90;;;-143.14;100.00;56521.75;4986251;28;20482;-78
2022/04/13 15:42:01;;;;;;;12.67;3.23;;;30.60;74.30;;;-143.14;100.00;56521.75;4986808;28;20566;-77
2022/04/13 15:44:28;;;;;;;6.77;2.80;;;30.60;73.10;;;-143.14;100.00;56521.75;4986840;28;20485;-77
2022/04/13 15:46:55;;;;;;;8.40;2.97;;;30.60;74.00;;;-143.14;100.00;56521.75;4985946;28;21101;-77
2022/04/13 15:49:23;;;;;;;5.40;2.80;;;30.60;73.60;;;-143.14;100.00;56521.75;4986825;28;20455;-78
2022/04/13 15:51:52;;;;;;;9.10;4.17;;;30.60;71.30;;;-143.14;100.00;56521.75;4987545;28;20467;-77